createdAt,value
2018-06-14T00:04:37.371Z,1009.51
2018-06-14T00:14:37.383Z,1009.44
2018-06-14T00:24:37.328Z,1009.37
2018-06-14T00:34:37.389Z,1009.4
2018-06-14T00:44:37.357Z,1009.44
2018-06-14T00:54:37.437Z,1009.4
2018-06-14T01:04:37.377Z,1009.42
2018-06-14T01:14:37.338Z,1009.42
2018-06-14T01:24:37.399Z,1009.4
2018-06-14T01:34:37.353Z,1009.45
2018-06-14T01:44:37.413Z,1009.47
2018-06-14T01:54:37.392Z,1009.45
2018-06-14T02:04:37.464Z,1009.31
2018-06-14T02:14:37.421Z,1009.23
2018-06-14T02:24:37.468Z,1009.17
2018-06-14T02:34:37.443Z,1009.19
2018-06-14T02:44:37.506Z,1009.18
2018-06-14T02:54:37.446Z,1009.14
2018-06-14T03:04:37.534Z,1009.08
2018-06-14T03:14:37.495Z,1009.14
2018-06-14T03:24:37.535Z,1008.98
2018-06-14T03:34:37.515Z,1008.97
2018-06-14T03:44:37.467Z,1008.82
2018-06-14T03:54:37.543Z,1008.92
2018-06-14T04:04:37.497Z,1009.04
2018-06-14T04:14:37.564Z,1008.98
2018-06-14T04:24:37.509Z,1009
2018-06-14T04:34:37.485Z,1008.89
2018-06-14T04:44:37.532Z,1008.85
2018-06-14T04:54:37.491Z,1008.72
2018-06-14T05:04:37.447Z,1008.81
2018-06-14T05:14:37.527Z,1008.77
2018-06-14T05:24:37.468Z,1008.67
2018-06-14T05:34:37.561Z,1008.62
2018-06-14T05:44:37.548Z,1008.62
2018-06-14T05:54:37.569Z,1008.65
2018-06-14T06:04:37.688Z,1008.99
2018-06-14T06:14:37.504Z,1008.83
2018-06-14T06:24:37.543Z,1008.71
2018-06-14T06:34:37.498Z,1008.59
2018-06-14T06:44:37.581Z,1008.41
2018-06-14T06:54:37.591Z,1008.42
2018-06-14T07:04:37.544Z,1008.41
2018-06-14T07:14:37.563Z,1008.37
2018-06-14T07:24:37.568Z,1008.44
2018-06-14T07:34:37.591Z,1008.31
2018-06-14T07:44:37.569Z,1008.3
2018-06-14T07:54:39.793Z,1008.22
2018-06-14T08:04:37.567Z,1008.08
2018-06-14T08:14:37.548Z,1008.02
2018-06-14T08:24:37.598Z,1007.94
2018-06-14T08:34:37.601Z,1007.81
2018-06-14T08:44:37.615Z,1007.85
2018-06-14T08:54:37.587Z,1007.75
2018-06-14T09:04:37.557Z,1007.53
2018-06-14T09:14:37.619Z,1007.44
2018-06-14T09:24:37.559Z,1007.32
2018-06-14T09:34:37.643Z,1007.36
2018-06-14T09:44:37.688Z,1007.19
2018-06-14T09:54:37.568Z,1007.32
2018-06-14T10:04:37.614Z,1007.32
2018-06-14T10:14:37.592Z,1007.47
2018-06-14T10:24:37.671Z,1007.47
2018-06-14T10:34:37.632Z,1007.45
2018-06-14T10:44:37.578Z,1007.45
2018-06-14T10:54:37.615Z,1007.37
2018-06-14T11:04:37.607Z,1007.13
2018-06-14T11:14:37.644Z,1007.06
2018-06-14T11:24:38.522Z,1007.03
2018-06-14T11:34:37.599Z,1006.93
2018-06-14T11:44:37.712Z,1006.91
2018-06-14T11:54:37.620Z,1006.95
2018-06-14T12:04:37.650Z,1006.85
2018-06-14T12:14:37.626Z,1006.71
2018-06-14T12:24:37.564Z,1006.63
2018-06-14T12:34:37.661Z,1006.56
2018-06-14T12:44:37.614Z,1006.52
2018-06-14T12:54:37.693Z,1006.45
2018-06-14T13:04:37.645Z,1006.4
2018-06-14T13:14:37.703Z,1006.36
2018-06-14T13:24:37.648Z,1006.35
2018-06-14T13:34:37.670Z,1006.19
2018-06-14T13:44:37.693Z,1006.17
2018-06-14T13:54:37.646Z,1006.12
2018-06-14T14:04:37.617Z,1006.11
2018-06-14T14:14:37.729Z,1006.21
2018-06-14T14:24:37.629Z,1006.15
2018-06-14T14:34:37.679Z,1006.29
2018-06-14T14:44:37.664Z,1006.44
2018-06-14T14:54:37.610Z,1006.52
2018-06-14T15:04:37.668Z,1006.5
2018-06-14T15:14:37.617Z,1006.57
2018-06-14T15:24:37.696Z,1006.63
2018-06-14T15:34:37.646Z,1006.7
2018-06-14T15:44:37.607Z,1006.8
2018-06-14T15:54:37.691Z,1006.91
2018-06-14T16:04:37.644Z,1007
2018-06-14T16:14:37.703Z,1007.13
2018-06-14T16:24:37.635Z,1007.3
2018-06-14T17:04:37.617Z,1007.21
2018-06-14T17:24:37.633Z,1007.2
2018-06-14T17:44:37.681Z,1007.26
2018-06-14T17:54:37.718Z,1007.25
2018-06-14T18:04:37.662Z,1007.23
2018-06-14T18:14:37.636Z,1007.37
2018-06-14T18:24:37.682Z,1007.36
2018-06-14T18:34:37.668Z,1007.36
2018-06-14T18:44:37.743Z,1007.49
2018-06-14T18:54:37.705Z,1007.45
2018-06-14T19:04:37.689Z,1007.53
2018-06-14T19:14:37.699Z,1007.55
2018-06-14T19:24:37.681Z,1007.56
2018-06-14T19:34:37.640Z,1007.62
2018-06-14T19:44:37.715Z,1007.81
2018-06-14T19:54:37.659Z,1007.95
2018-06-14T20:04:37.689Z,1008.08
2018-06-14T20:14:37.674Z,1008.22
2018-06-14T20:24:37.654Z,1008.17
2018-06-14T20:34:38.678Z,1008.22
2018-06-14T20:44:37.704Z,1008.24
2018-06-14T20:54:37.723Z,1008.27
2018-06-14T21:04:37.737Z,1008.33
2018-06-14T21:14:37.708Z,1008.46
2018-06-14T21:24:37.735Z,1008.49
2018-06-14T21:34:37.712Z,1008.6
2018-06-14T21:44:37.729Z,1008.5
2018-06-14T21:54:37.817Z,1008.48
2018-06-14T22:04:37.849Z,1008.49
2018-06-14T22:14:37.885Z,1008.54
2018-06-14T22:24:37.778Z,1008.57
2018-06-14T22:34:37.843Z,1008.62
2018-06-14T22:44:37.840Z,1008.64
2018-06-14T22:54:37.838Z,1008.69
2018-06-14T23:04:37.814Z,1008.72
2018-06-14T23:14:37.861Z,1008.74
2018-06-14T23:24:37.816Z,1008.74
2018-06-14T23:34:40.150Z,1008.7
2018-06-14T23:44:37.847Z,1008.7
2018-06-14T23:54:37.912Z,1008.8
